Terminal Aerodrome Forecast
Issued by NWS

Home | Current Version | Previous Version | Text Only | Print | Product List | Glossary On
Versions: 1 2 3 4 5 6 7 8 9 10 11 12 13
000
FTUS42 KMHX 252340
TAFOAJ
TAF
KOAJ 252340Z 2600/2624 14003KT P6SM -RA SCT007 OVC025
     FM260400 VRB03KT 4SM BR OVC004
     FM261500 31006KT P6SM VCSH OVC007
     FM261700 35007KT P6SM VCSH OVC015
      AMD LTD TO CLD VIS AND WIND=

USA.gov is the U.S. government's official web portal to all federal, state and local government web resources and services.